Lake Como, Pennsylvania
Current Conditions -  °F | °C
As of 11:55 AM on Tuesday 27 Jan 2015 (Local Time) from KMSV Reporting Station
Overcast Overcast  
Wind Chill:   Ceiling: 3500
Heat Index: 19°   Visibility: 10mi
Dew Point: 10°   Wind: 14mph
Humidity: 68%   Direction: 310°NW
Pressure: 29.68"   Gusts: 22mph
Location:  41.85°N, 75.34°W
Report Text: KMSV 271655Z AUTO 31012G19KT 10SM BKN035 OVC044 M07/M12 A2968 RMK AO1
Loading
Personal Weather Stations






























Interactive Weather Map New forecast layout! Learn more

10-Day Weather Forecast

Advertisements
Track Severe Weather on mobile